Time;durP1;ratioP1;P1;durP2;ratioP2;P2;SDS_P1;SDS_P2;PMS_P1;PMS_P2;Temp;Humidity;BMP_temperature;BMP_pressure;BME280_temperature;BME280_humidity;BME280_pressure;Samples;Min_cycle;Max_cycle;Signal;HPM_P1;HPM_P2
2022/07/24 00:00:20;;;;;;;;;;;;;;;;;;5100070;28;19932;-78
2022/07/24 00:02:46;;;;;;;;;;;;;;;;;;5100179;28;20007;-79
2022/07/24 00:05:13;;;;;;;;;;;;;;;;;;5100258;28;20010;-78
2022/07/24 00:07:39;;;;;;;;;;;;;;;;;;5099480;28;20014;-79
2022/07/24 00:10:06;;;;;;;;;;;;;;;;;;5099132;28;19930;-79
2022/07/24 00:12:34;;;;;;;;;;;;;;;;;;5099093;28;19928;-79
2022/07/24 00:15:01;;;;;;;;;;;;;;;;;;5099053;28;19991;-79
2022/07/24 00:17:27;;;;;;;;;;;;;;;;;;5100624;28;19933;-79
2022/07/24 00:19:53;;;;;;;;;;;;;;;;;;5101929;28;20018;-79
2022/07/24 00:22:20;;;;;;;;;;;;;;;;;;5102112;28;20014;-79
2022/07/24 00:24:46;;;;;;;;;;;;;;;;;;5102220;28;20071;-79
2022/07/24 00:27:13;;;;;;;;;;;;;;;;;;5102221;28;20329;-79
2022/07/24 00:29:41;;;;;;;;;;;;;;;;;;5102658;28;20342;-78
2022/07/24 00:32:07;;;;;;;;;;;;;;;;;;5102951;28;20465;-79
2022/07/24 00:34:34;;;;;;;;;;;;;;;;;;5102507;28;19930;-79
2022/07/24 00:37:00;;;;;;;;;;;;;;;;;;5100129;28;19931;-78
2022/07/24 00:39:26;;;;;;;;;;;;;;;;;;5098520;28;19924;-78
2022/07/24 00:41:53;;;;;;;;;;;;;;;;;;5101535;28;20368;-78
2022/07/24 00:44:20;;;;;;;;;;;;;;;;;;5099305;28;19975;-79
2022/07/24 00:46:47;;;;;;;;;;;;;;;;;;5095329;28;19978;-78
2022/07/24 00:49:15;;;;;;;;;;;;;;;;;;5094947;28;19924;-79
2022/07/24 00:51:43;;;;;;;;;;;;;;;;;;5097949;28;19930;-78
2022/07/24 00:54:11;;;;;;;;;;;;;;;;;;5098702;28;20466;-77
2022/07/24 00:56:37;;;;;;;;;;;;;;;;;;5099670;28;20399;-78
2022/07/24 00:59:04;;;;;;;;;;;;;;;;;;5100924;28;19924;-78
2022/07/24 01:01:31;;;;;;;;;;;;;;;;;;5102222;28;19987;-79
2022/07/24 01:03:59;;;;;;;;;;;;;;;;;;5102036;28;19988;-78
2022/07/24 01:06:26;;;;;;;;;;;;;;;;;;5102019;28;20007;-79
2022/07/24 01:08:52;;;;;;;;;;;;;;;;;;5103260;28;19931;-80
2022/07/24 01:11:20;;;;;;;;;;;;;;;;;;5103441;28;19955;-80
2022/07/24 01:13:47;;;;;;;;;;;;;;;;;;5102020;28;20331;-80
2022/07/24 01:16:14;;;;;;;;;;;;;;;;;;5102392;28;19964;-79
2022/07/24 01:18:40;;;;;;;;;;;;;;;;;;5102529;28;19959;-79
2022/07/24 01:21:08;;;;;;;;;;;;;;;;;;5102913;28;20438;-79
2022/07/24 01:23:35;;;;;;;;;;;;;;;;;;5103018;28;19959;-80
2022/07/24 01:26:02;;;;;;;;;;;;;;;;;;5102176;28;19970;-80
2022/07/24 01:28:28;;;;;;;;;;;;;;;;;;5101548;28;19996;-80
2022/07/24 01:30:55;;;;;;;;;;;;;;;;;;5097696;28;20337;-80
2022/07/24 01:33:21;;;;;;;;;;;;;;;;;;5098089;28;19999;-80
2022/07/24 01:35:48;;;;;;;;;;;;;;;;;;5097716;28;20019;-80
2022/07/24 01:38:16;;;;;;;;;;;;;;;;;;5099777;28;19924;-79
2022/07/24 01:40:42;;;;;;;;;;;;;;;;;;5098850;28;20387;-79
2022/07/24 01:43:09;;;;;;;;;;;;;;;;;;5097816;28;20227;-79
2022/07/24 01:45:35;;;;;;;;;;;;;;;;;;5098095;28;19931;-79
2022/07/24 01:48:02;;;;;;;;;;;;;;;;;;5101367;28;19996;-79
2022/07/24 01:50:28;;;;;;;;;;;;;;;;;;5101678;28;19924;-79
2022/07/24 01:52:55;;;;;;;;;;;;;;;;;;5106636;28;19924;-79
2022/07/24 01:55:23;;;;;;;;;;;;;;;;;;5105400;28;19963;-79
2022/07/24 01:57:49;;;;;;;;;;;;;;;;;;5104255;28;20015;-80
2022/07/24 02:00:16;;;;;;;;;;;;;;;;;;5103123;28;19925;-80
2022/07/24 02:02:43;;;;;;;;;;;;;;;;;;5102826;28;19924;-80
2022/07/24 02:05:10;;;;;;;;;;;;;;;;;;5101614;28;19924;-80
2022/07/24 02:07:37;;;;;;;;;;;;;;;;;;5101478;28;19930;-80
2022/07/24 02:10:03;;;;;;;;;;;;;;;;;;5100782;28;19930;-81
2022/07/24 02:12:31;;;;;;;;;;;;;;;;;;5100781;28;19924;-80
2022/07/24 02:14:57;;;;;;;;;;;;;;;;;;5097343;28;19924;-80
2022/07/24 02:17:24;;;;;;;;;;;;;;;;;;5097823;28;19928;-80
2022/07/24 02:19:50;;;;;;;;;;;;;;;;;;5100507;28;20014;-80
2022/07/24 02:22:17;;;;;;;;;;;;;;;;;;5101200;28;19924;-80
2022/07/24 02:24:43;;;;;;;;;;;;;;;;;;5100010;28;19924;-80
2022/07/24 02:27:10;;;;;;;;;;;;;;;;;;5100056;28;20014;-80
2022/07/24 02:32:15;;;;;;;;;;;;;;;;;;5092690;28;20402;-60
2022/07/24 02:34:41;;;;;;;;;;;;;;;;;;5095114;28;19928;-57
2022/07/24 02:37:08;;;;;;;;;;;;;;;;;;5094694;28;20446;-60
2022/07/24 02:39:34;;;;;;;;;;;;;;;;;;5094940;28;19924;-60
2022/07/24 02:42:01;;;;;;;;;;;;;;;;;;5094948;28;19928;-60
2022/07/24 02:44:28;;;;;;;;;;;;;;;;;;5095004;28;20380;-60
2022/07/24 02:46:54;;;;;;;;;;;;;;;;;;5095422;28;20299;-60
2022/07/24 02:49:22;;;;;;;;;;;;;;;;;;5094741;28;19977;-60
2022/07/24 02:51:49;;;;;;;;;;;;;;;;;;5094579;28;20292;-61
2022/07/24 02:54:15;;;;;;;;;;;;;;;;;;5095039;28;20115;-61
2022/07/24 02:56:42;;;;;;;;;;;;;;;;;;5094361;28;20027;-61
2022/07/24 02:59:08;;;;;;;;;;;;;;;;;;5094508;28;19924;-61
2022/07/24 03:01:35;;;;;;;;;;;;;;;;;;5094470;28;20336;-61
2022/07/24 03:04:02;;;;;;;;;;;;;;;;;;5094332;28;19928;-61
2022/07/24 03:06:30;;;;;;;;;;;;;;;;;;5094213;28;19924;-61
2022/07/24 03:08:56;;;;;;;;;;;;;;;;;;5094398;28;19977;-61
2022/07/24 03:11:23;;;;;;;;;;;;;;;;;;5094621;28;20351;-60
2022/07/24 03:13:49;;;;;;;;;;;;;;;;;;5094184;28;20301;-58
2022/07/24 03:16:16;;;;;;;;;;;;;;;;;;5094159;28;19974;-59
2022/07/24 03:18:45;;;;;;;;;;;;;;;;;;5094241;28;20333;-61
2022/07/24 03:21:12;;;;;;;;;;;;;;;;;;5094736;28;19924;-61
2022/07/24 03:23:40;;;;;;;;;;;;;;;;;;5094297;28;19928;-61
2022/07/24 03:26:06;;;;;;;;;;;;;;;;;;5093921;28;20292;-61
2022/07/24 03:28:33;;;;;;;;;;;;;;;;;;5094065;28;19967;-61
2022/07/24 03:31:00;;;;;;;;;;;;;;;;;;5093847;28;20312;-61
2022/07/24 03:33:27;;;;;;;;;;;;;;;;;;5093954;28;20282;-61
2022/07/24 03:35:53;;;;;;;;;;;;;;;;;;5093525;28;19928;-60
2022/07/24 03:38:20;;;;;;;;;;;;;;;;;;5093876;28;19928;-61
2022/07/24 03:40:48;;;;;;;;;;;;;;;;;;5093988;28;19969;-61
2022/07/24 03:43:15;;;;;;;;;;;;;;;;;;5093812;28;20277;-61
2022/07/24 03:45:41;;;;;;;;;;;;;;;;;;5093624;28;19928;-61
2022/07/24 03:48:08;;;;;;;;;;;;;;;;;;5093508;28;20389;-61
2022/07/24 03:50:34;;;;;;;;;;;;;;;;;;5093506;28;19928;-61
2022/07/24 03:53:01;;;;;;;;;;;;;;;;;;5093602;28;19928;-61
2022/07/24 03:55:27;;;;;;;;;;;;;;;;;;5093682;28;19970;-61
2022/07/24 03:57:55;;;;;;;;;;;;;;;;;;5093481;28;19978;-61
2022/07/24 04:00:22;;;;;;;;;;;;;;;;;;5085222;28;19993;-60
2022/07/24 04:02:48;;;;;;;;;;;;;;;;;;5073301;28;20331;-61
2022/07/24 04:05:15;;;;;;;;;;;;;;;;;;5073363;28;19924;-61
2022/07/24 04:07:41;;;;;;;;;;;;;;;;;;5072968;28;20005;-61
2022/07/24 04:10:08;;;;;;;;;;;;;;;;;;5072898;28;19924;-61
2022/07/24 04:12:36;;;;;;;;;;;;;;;;;;5072780;28;20027;-60
2022/07/24 04:15:04;;;;;;;;;;;;;;;;;;5072701;28;19928;-61
2022/07/24 04:17:30;;;;;;;;;;;;;;;;;;5072698;28;20258;-61
2022/07/24 04:19:57;;;;;;;;;;;;;;;;;;5072742;28;19929;-61
2022/07/24 04:22:23;;;;;;;;;;;;;;;;;;5072694;28;20359;-61
2022/07/24 04:24:50;;;;;;;;;;;;;;;;;;5072666;28;19932;-59
2022/07/24 04:27:16;;;;;;;;;;;;;;;;;;5072449;28;19978;-60
2022/07/24 04:29:43;;;;;;;;;;;;;;;;;;5072961;28;19925;-61
2022/07/24 04:32:11;;;;;;;;;;;;;;;;;;5072497;28;20447;-61
2022/07/24 04:34:37;;;;;;;;;;;;;;;;;;5072475;28;19970;-61
2022/07/24 04:37:04;;;;;;;;;;;;;;;;;;5072444;28;19928;-61
2022/07/24 04:39:30;;;;;;;;;;;;;;;;;;5072524;28;19971;-62
2022/07/24 04:41:57;;;;;;;;;;;;;;;;;;5071898;28;19925;-61
2022/07/24 04:44:23;;;;;;;;;;;;;;;;;;5072493;28;19970;-59
2022/07/24 04:46:50;;;;;;;;;;;;;;;;;;5072266;28;20320;-59
2022/07/24 04:49:18;;;;;;;;;;;;;;;;;;5072452;28;19932;-60
2022/07/24 04:51:44;;;;;;;;;;;;;;;;;;5072180;28;20397;-57
2022/07/24 04:54:11;;;;;;;;;;;;;;;;;;5072546;28;19970;-60
2022/07/24 04:56:37;;;;;;;;;;;;;;;;;;5071882;28;19924;-61
2022/07/24 04:59:04;;;;;;;;;;;;;;;;;;5072222;28;19924;-57
2022/07/24 05:01:30;;;;;;;;;;;;;;;;;;5090221;28;20317;-61
2022/07/24 05:03:58;;;;;;;;;;;;;;;;;;5092699;28;19996;-60
2022/07/24 05:06:26;;;;;;;;;;;;;;;;;;5092547;28;20448;-61
2022/07/24 05:08:53;;;;;;;;;;;;;;;;;;5092430;28;20334;-59
2022/07/24 05:11:19;;;;;;;;;;;;;;;;;;5091917;28;19977;-60
2022/07/24 05:13:46;;;;;;;;;;;;;;;;;;5091590;28;20457;-61
2022/07/24 05:16:12;;;;;;;;;;;;;;;;;;5092116;28;19977;-61
2022/07/24 05:18:39;;;;;;;;;;;;;;;;;;5092643;28;19928;-61
2022/07/24 05:21:05;;;;;;;;;;;;;;;;;;5092192;28;20388;-61
2022/07/24 05:23:33;;;;;;;;;;;;;;;;;;5092233;28;20029;-60
2022/07/24 05:26:00;;;;;;;;;;;;;;;;;;5091611;28;19931;-61
2022/07/24 05:28:26;;;;;;;;;;;;;;;;;;5091992;28;20433;-60
2022/07/24 05:30:53;;;;;;;;;;;;;;;;;;5092067;28;19924;-60
2022/07/24 05:33:19;;;;;;;;;;;;;;;;;;5092171;28;19924;-61
2022/07/24 05:35:46;;;;;;;;;;;;;;;;;;5092270;28;19969;-58
2022/07/24 05:38:12;;;;;;;;;;;;;;;;;;5091865;28;19924;-61
2022/07/24 05:40:40;;;;;;;;;;;;;;;;;;5092199;28;20336;-62
2022/07/24 05:43:07;;;;;;;;;;;;;;;;;;5092560;28;19931;-60
2022/07/24 05:45:33;;;;;;;;;;;;;;;;;;5093748;28;19924;-60
2022/07/24 05:48:00;;;;;;;;;;;;;;;;;;5092158;28;20411;-61
2022/07/24 05:50:27;;;;;;;;;;;;;;;;;;5091803;28;19970;-60
2022/07/24 05:52:53;;;;;;;;;;;;;;;;;;5092237;28;19924;-60
2022/07/24 05:55:20;;;;;;;;;;;;;;;;;;5096327;28;19939;-60
2022/07/24 05:57:48;;;;;;;;;;;;;;;;;;5095601;28;19942;-61
2022/07/24 06:00:18;;;;;;;;;;;;;;;;;;5088758;28;20286;-61
2022/07/24 06:02:46;;;;;;;;;;;;;;;;;;5075504;28;19932;-61
2022/07/24 06:05:12;;;;;;;;;;;;;;;;;;5075487;28;19983;-61
2022/07/24 06:07:39;;;;;;;;;;;;;;;;;;5074940;28;19924;-61
2022/07/24 06:10:06;;;;;;;;;;;;;;;;;;5075279;28;19925;-60
2022/07/24 06:12:33;;;;;;;;;;;;;;;;;;5075007;28;19929;-60
2022/07/24 06:15:01;;;;;;;;;;;;;;;;;;5075241;28;19985;-61
2022/07/24 06:17:27;;;;;;;;;;;;;;;;;;5074864;28;19939;-61
2022/07/24 06:19:54;;;;;;;;;;;;;;;;;;5075330;28;19925;-60
2022/07/24 06:22:20;;;;;;;;;;;;;;;;;;5075278;28;19929;-60
2022/07/24 06:24:47;;;;;;;;;;;;;;;;;;5075306;28;19924;-61
2022/07/24 06:27:14;;;;;;;;;;;;;;;;;;5075020;28;19972;-60
2022/07/24 06:29:40;;;;;;;;;;;;;;;;;;5075100;28;19978;-60
2022/07/24 06:32:08;;;;;;;;;;;;;;;;;;5074899;28;19978;-58
2022/07/24 06:34:35;;;;;;;;;;;;;;;;;;5074940;28;19924;-61
2022/07/24 06:37:01;;;;;;;;;;;;;;;;;;5074604;28;19991;-61
2022/07/24 06:39:28;;;;;;;;;;;;;;;;;;5074936;28;19940;-60
2022/07/24 06:41:54;;;;;;;;;;;;;;;;;;5074899;28;19925;-61
2022/07/24 06:44:22;;;;;;;;;;;;;;;;;;5075067;28;20011;-61
2022/07/24 06:46:49;;;;;;;;;;;;;;;;;;5074945;28;20331;-61
2022/07/24 06:49:17;;;;;;;;;;;;;;;;;;5075150;28;19929;-61
2022/07/24 06:51:43;;;;;;;;;;;;;;;;;;5074707;28;20339;-60
2022/07/24 06:54:10;;;;;;;;;;;;;;;;;;5074604;28;19970;-61
2022/07/24 06:56:36;;;;;;;;;;;;;;;;;;5074378;28;19985;-60
2022/07/24 06:59:03;;;;;;;;;;;;;;;;;;5074532;28;19936;-60
2022/07/24 07:01:30;;;;;;;;;;;;;;;;;;5091773;28;19924;-60
2022/07/24 07:03:56;;;;;;;;;;;;;;;;;;5094200;28;19924;-60
2022/07/24 07:06:24;;;;;;;;;;;;;;;;;;5094380;28;19928;-60
2022/07/24 07:08:51;;;;;;;;;;;;;;;;;;5094742;28;20339;-59
2022/07/24 07:11:17;;;;;;;;;;;;;;;;;;5094638;28;19924;-60
2022/07/24 07:13:44;;;;;;;;;;;;;;;;;;5094560;28;20011;-60
2022/07/24 07:16:10;;;;;;;;;;;;;;;;;;5094917;28;19924;-61
2022/07/24 07:18:37;;;;;;;;;;;;;;;;;;5094940;28;20454;-60
2022/07/24 07:21:04;;;;;;;;;;;;;;;;;;5096014;28;19924;-60
2022/07/24 07:23:32;;;;;;;;;;;;;;;;;;5096904;28;19924;-61
2022/07/24 07:25:58;;;;;;;;;;;;;;;;;;5096186;28;20281;-60
2022/07/24 07:28:25;;;;;;;;;;;;;;;;;;5094612;28;19977;-61
2022/07/24 07:30:51;;;;;;;;;;;;;;;;;;5094488;28;19924;-60
2022/07/24 07:33:18;;;;;;;;;;;;;;;;;;5093872;28;19928;-61
2022/07/24 07:35:45;;;;;;;;;;;;;;;;;;5094090;28;19924;-61
2022/07/24 07:38:11;;;;;;;;;;;;;;;;;;5094049;28;19929;-61
2022/07/24 07:40:39;;;;;;;;;;;;;;;;;;5093928;28;19932;-60
2022/07/24 07:43:06;;;;;;;;;;;;;;;;;;5093788;28;19984;-60
2022/07/24 07:45:32;;;;;;;;;;;;;;;;;;5093707;28;19924;-61
2022/07/24 07:47:59;;;;;;;;;;;;;;;;;;5093603;28;19931;-61
2022/07/24 07:50:25;;;;;;;;;;;;;;;;;;5093766;28;19931;-61
2022/07/24 07:52:52;;;;;;;;;;;;;;;;;;5093618;28;19928;-61
2022/07/24 07:55:18;;;;;;;;;;;;;;;;;;5093712;28;19932;-60
2022/07/24 07:57:46;;;;;;;;;;;;;;;;;;5093591;28;20343;-61
2022/07/24 08:00:13;;;;;;;;;;;;;;;;;;5086992;28;19924;-65
2022/07/24 08:02:40;;;;;;;;;;;;;;;;;;5073208;28;19925;-61
2022/07/24 08:05:07;;;;;;;;;;;;;;;;;;5073223;28;19924;-61
2022/07/24 08:07:33;;;;;;;;;;;;;;;;;;5072685;28;19929;-61
2022/07/24 08:10:00;;;;;;;;;;;;;;;;;;5073120;28;19925;-61
2022/07/24 08:12:26;;;;;;;;;;;;;;;;;;5072861;28;19933;-63
2022/07/24 08:14:54;;;;;;;;;;;;;;;;;;5072959;28;19978;-61
2022/07/24 08:17:21;;;;;;;;;;;;;;;;;;5071638;28;19978;-60
2022/07/24 08:19:48;;;;;;;;;;;;;;;;;;5072893;28;19924;-61
2022/07/24 08:22:14;;;;;;;;;;;;;;;;;;5072845;28;19971;-61
2022/07/24 08:24:41;;;;;;;;;;;;;;;;;;5072699;28;20319;-61
2022/07/24 08:27:07;;;;;;;;;;;;;;;;;;5074709;28;19971;-62
2022/07/24 08:29:34;;;;;;;;;;;;;;;;;;5072690;28;19990;-63
2022/07/24 08:32:02;;;;;;;;;;;;;;;;;;5107377;22;19947;-75
2022/07/24 08:34:28;;;;;;;;;;;;;;;;;;5093046;28;19947;-75
2022/07/24 08:36:55;;;;;;;;;;;;;;;;;;5092363;28;19930;-76
2022/07/24 08:39:21;;;;;;;;;;;;;;;;;;5092320;28;19928;-75
2022/07/24 08:41:47;;;;;;;;;;;;;;;;;;5092530;28;19932;-76
2022/07/24 08:44:14;;;;;;;;;;;;;;;;;;5092603;28;19927;-76
2022/07/24 08:46:41;;;;;;;;;;;;;;;;;;5092581;28;20516;-75
2022/07/24 08:49:10;;;;;;;;;;;;;;;;;;5092644;28;19924;-74
2022/07/24 08:51:38;;;;;;;;;;;;;;;;;;5092198;28;19946;-76
2022/07/24 08:54:04;;;;;;;;;;;;;;;;;;5102078;28;20007;-75
2022/07/24 08:56:33;;;;;;;;;;;;;;;;;;5113102;28;19924;-75
2022/07/24 08:59:00;;;;;;;;;;;;;;;;;;5113233;28;20016;-76
2022/07/24 09:01:26;;;;;;;;;;;;;;;;;;5112602;28;20400;-75
2022/07/24 09:03:53;;;;;;;;;;;;;;;;;;5112763;28;20022;-76
2022/07/24 09:06:20;;;;;;;;;;;;;;;;;;5112538;28;19930;-76
2022/07/24 09:08:57;;;;;;;;;;;;;;;;;;5112626;28;19924;-76
2022/07/24 09:11:24;;;;;;;;;;;;;;;;;;5112967;28;19930;-76
2022/07/24 09:16:36;;;;;;;;;;;;;;;;;;5112716;28;19969;-75
2022/07/24 09:19:03;;;;;;;;;;;;;;;;;;5112683;28;19950;-75
2022/07/24 09:21:32;;;;;;;;;;;;;;;;;;5112988;28;19924;-74
2022/07/24 09:24:02;;;;;;;;;;;;;;;;;;5116530;28;19971;-75
2022/07/24 09:26:43;;;;;;;;;;;;;;;;;;5117914;28;19924;-74
2022/07/24 09:29:11;;;;;;;;;;;;;;;;;;5122965;28;19924;-74
2022/07/24 09:31:49;;;;;;;;;;;;;;;;;;5122938;28;19992;-74
2022/07/24 09:34:16;;;;;;;;;;;;;;;;;;5121861;28;19954;-75
2022/07/24 09:36:50;;;;;;;;;;;;;;;;;;5117570;28;20515;-75
2022/07/24 09:39:18;;;;;;;;;;;;;;;;;;5116899;28;19923;-76
2022/07/24 09:41:51;;;;;;;;;;;;;;;;;;5116817;28;20296;-76
2022/07/24 09:44:17;;;;;;;;;;;;;;;;;;5116813;28;19928;-76
2022/07/24 09:46:46;;;;;;;;;;;;;;;;;;5116591;28;20022;-76
2022/07/24 09:49:20;;;;;;;;;;;;;;;;;;5118505;28;19934;-77
2022/07/24 09:52:07;;;;;;;;;;;;;;;;;;5117025;28;19963;-75
2022/07/24 09:54:34;;;;;;;;;;;;;;;;;;5117366;28;19928;-77
2022/07/24 09:57:14;;;;;;;;;;;;;;;;;;5116268;28;20665;-75
2022/07/24 09:59:41;;;;;;;;;;;;;;;;;;5116764;28;19930;-77
2022/07/24 10:02:08;;;;;;;;;;;;;;;;;;5117679;28;19923;-76
2022/07/24 10:04:35;;;;;;;;;;;;;;;;;;5117219;28;19923;-76
2022/07/24 10:07:03;;;;;;;;;;;;;;;;;;5115894;28;19923;-76
2022/07/24 10:09:30;;;;;;;;;;;;;;;;;;5116113;28;20298;-76
2022/07/24 10:11:57;;;;;;;;;;;;;;;;;;5116335;28;19930;-75
2022/07/24 10:14:25;;;;;;;;;;;;;;;;;;5115774;28;20283;-75
2022/07/24 10:16:58;;;;;;;;;;;;;;;;;;5116016;28;20014;-76
2022/07/24 10:19:29;;;;;;;;;;;;;;;;;;5115819;28;19930;-76
2022/07/24 10:21:57;;;;;;;;;;;;;;;;;;5115670;28;19923;-76
2022/07/24 10:24:47;;;;;;;;;;;;;;;;;;5116392;28;19935;-76
2022/07/24 10:27:23;;;;;;;;;;;;;;;;;;5116031;28;19946;-76
2022/07/24 10:29:49;;;;;;;;;;;;;;;;;;5115744;28;19930;-76
2022/07/24 10:32:16;;;;;;;;;;;;;;;;;;5116348;28;20354;-75
2022/07/24 10:34:47;;;;;;;;;;;;;;;;;;5116035;28;19924;-76
2022/07/24 10:37:16;;;;;;;;;;;;;;;;;;5116732;28;20407;-75
2022/07/24 10:39:47;;;;;;;;;;;;;;;;;;5115236;28;19988;-76
2022/07/24 10:42:13;;;;;;;;;;;;;;;;;;5116649;28;19927;-76
2022/07/24 10:44:41;;;;;;;;;;;;;;;;;;5116052;28;19927;-76
2022/07/24 10:47:08;;;;;;;;;;;;;;;;;;5115350;28;19930;-75
2022/07/24 10:49:42;;;;;;;;;;;;;;;;;;5115456;28;19932;-75
2022/07/24 10:52:09;;;;;;;;;;;;;;;;;;5116421;28;19977;-76
2022/07/24 10:54:36;;;;;;;;;;;;;;;;;;5116540;28;20026;-75
2022/07/24 10:57:02;;;;;;;;;;;;;;;;;;5117118;28;19928;-76
2022/07/24 10:59:35;;;;;;;;;;;;;;;;;;5123610;28;19924;-75
2022/07/24 11:02:20;;;;;;;;;;;;;;;;;;5122403;28;20325;-75
2022/07/24 11:05:08;;;;;;;;;;;;;;;;;;5115809;28;19930;-76
2022/07/24 11:07:36;;;;;;;;;;;;;;;;;;5115135;28;19924;-77
2022/07/24 11:10:07;;;;;;;;;;;;;;;;;;5115692;28;19928;-76
2022/07/24 11:12:34;;;;;;;;;;;;;;;;;;5115358;28;19924;-76
2022/07/24 11:17:43;;;;;;;;;;;;;;;;;;5113311;28;19969;-75
2022/07/24 11:20:10;;;;;;;;;;;;;;;;;;5114537;28;19971;-75
2022/07/24 11:22:42;;;;;;;;;;;;;;;;;;5115602;28;19946;-76
2022/07/24 11:25:09;;;;;;;;;;;;;;;;;;5118965;28;19930;-76
2022/07/24 11:27:42;;;;;;;;;;;;;;;;;;5115562;28;20390;-75
2022/07/24 11:30:10;;;;;;;;;;;;;;;;;;5115477;28;19923;-75
2022/07/24 11:32:37;;;;;;;;;;;;;;;;;;5115519;28;19930;-76
2022/07/24 11:35:06;;;;;;;;;;;;;;;;;;5116239;28;19927;-76
2022/07/24 11:37:35;;;;;;;;;;;;;;;;;;5115183;28;19977;-77
2022/07/24 11:40:04;;;;;;;;;;;;;;;;;;5115113;28;20018;-74
2022/07/24 11:42:31;;;;;;;;;;;;;;;;;;5114451;28;19971;-74
2022/07/24 11:44:57;;;;;;;;;;;;;;;;;;5114884;28;19953;-74
2022/07/24 11:47:24;;;;;;;;;;;;;;;;;;5114671;28;19928;-76
2022/07/24 11:49:52;;;;;;;;;;;;;;;;;;5114304;28;19949;-76
2022/07/24 11:52:20;;;;;;;;;;;;;;;;;;5113912;28;19973;-76
2022/07/24 11:54:47;;;;;;;;;;;;;;;;;;5114980;28;19924;-75
2022/07/24 11:57:20;;;;;;;;;;;;;;;;;;5115218;28;19934;-75
2022/07/24 11:59:47;;;;;;;;;;;;;;;;;;5118438;28;19924;-75
2022/07/24 12:02:14;;;;;;;;;;;;;;;;;;5114463;28;19928;-75
2022/07/24 12:04:41;;;;;;;;;;;;;;;;;;5113992;28;19923;-74
2022/07/24 12:07:08;;;;;;;;;;;;;;;;;;5115042;28;19928;-77
2022/07/24 12:09:44;;;;;;;;;;;;;;;;;;5114793;28;19924;-75
2022/07/24 12:12:19;;;;;;;;;;;;;;;;;;5115038;28;19924;-75
2022/07/24 12:14:46;;;;;;;;;;;;;;;;;;5114298;28;19946;-76
2022/07/24 12:17:12;;;;;;;;;;;;;;;;;;5116719;28;19930;-77
2022/07/24 12:19:39;;;;;;;;;;;;;;;;;;5114549;28;20299;-74
2022/07/24 12:22:05;;;;;;;;;;;;;;;;;;5115316;28;20440;-76
2022/07/24 12:24:32;;;;;;;;;;;;;;;;;;5114824;28;19927;-76
2022/07/24 12:26:59;;;;;;;;;;;;;;;;;;5113827;28;19923;-76
2022/07/24 12:29:27;;;;;;;;;;;;;;;;;;5114902;28;19982;-77
2022/07/24 12:32:12;;;;;;;;;;;;;;;;;;5113897;28;20404;-76
2022/07/24 12:34:42;;;;;;;;;;;;;;;;;;5113931;28;20027;-75
2022/07/24 12:37:14;;;;;;;;;;;;;;;;;;5113407;28;19923;-75
2022/07/24 12:39:45;;;;;;;;;;;;;;;;;;5113200;28;20382;-77
2022/07/24 12:42:12;;;;;;;;;;;;;;;;;;5114559;28;19924;-75
2022/07/24 12:44:44;;;;;;;;;;;;;;;;;;5113540;28;19923;-74
2022/07/24 12:47:11;;;;;;;;;;;;;;;;;;5114090;28;19924;-76
2022/07/24 12:49:41;;;;;;;;;;;;;;;;;;5113728;28;19923;-76
2022/07/24 12:52:19;;;;;;;;;;;;;;;;;;5114091;28;19923;-77
2022/07/24 12:54:46;;;;;;;;;;;;;;;;;;5115101;28;19965;-75
2022/07/24 12:57:14;;;;;;;;;;;;;;;;;;5113161;28;19966;-76
2022/07/24 12:59:41;;;;;;;;;;;;;;;;;;5113398;28;19923;-76
2022/07/24 13:02:10;;;;;;;;;;;;;;;;;;5113517;28;19931;-76
2022/07/24 13:04:41;;;;;;;;;;;;;;;;;;5113392;28;20411;-76
2022/07/24 13:07:08;;;;;;;;;;;;;;;;;;5113059;28;19924;-77
2022/07/24 13:09:36;;;;;;;;;;;;;;;;;;5113224;28;19963;-74
2022/07/24 13:12:03;;;;;;;;;;;;;;;;;;5112801;28;20421;-77
2022/07/24 13:14:29;;;;;;;;;;;;;;;;;;5113021;28;20019;-75
2022/07/24 13:17:01;;;;;;;;;;;;;;;;;;5112406;28;19931;-77
2022/07/24 13:19:29;;;;;;;;;;;;;;;;;;5113255;28;19924;-77
2022/07/24 13:21:56;;;;;;;;;;;;;;;;;;5112959;28;20015;-76
2022/07/24 13:24:22;;;;;;;;;;;;;;;;;;5113297;28;19924;-76
2022/07/24 13:26:49;;;;;;;;;;;;;;;;;;5113304;28;19924;-76
2022/07/24 13:29:15;;;;;;;;;;;;;;;;;;5112508;28;20551;-75
2022/07/24 13:31:42;;;;;;;;;;;;;;;;;;5112186;28;19930;-75
2022/07/24 13:34:09;;;;;;;;;;;;;;;;;;5112450;28;19930;-75
2022/07/24 13:36:37;;;;;;;;;;;;;;;;;;5112173;28;19928;-76
2022/07/24 13:39:04;;;;;;;;;;;;;;;;;;5113686;28;19946;-76
2022/07/24 13:41:30;;;;;;;;;;;;;;;;;;5112651;28;19936;-76
2022/07/24 13:43:56;;;;;;;;;;;;;;;;;;5112984;28;20010;-76
2022/07/24 13:46:23;;;;;;;;;;;;;;;;;;5112710;28;19931;-76
2022/07/24 13:48:49;;;;;;;;;;;;;;;;;;5112486;28;19924;-76
2022/07/24 13:51:16;;;;;;;;;;;;;;;;;;5112489;28;19928;-76
2022/07/24 13:53:44;;;;;;;;;;;;;;;;;;5112762;28;20014;-77
2022/07/24 13:56:10;;;;;;;;;;;;;;;;;;5112542;28;19927;-76
2022/07/24 13:58:37;;;;;;;;;;;;;;;;;;5112402;28;19985;-76
2022/07/24 14:01:04;;;;;;;;;;;;;;;;;;5114202;28;19924;-78
2022/07/24 14:03:31;;;;;;;;;;;;;;;;;;5113712;28;20031;-77
2022/07/24 14:05:57;;;;;;;;;;;;;;;;;;5114242;28;20400;-77
2022/07/24 14:08:23;;;;;;;;;;;;;;;;;;5112755;28;20028;-76
2022/07/24 14:10:51;;;;;;;;;;;;;;;;;;5112364;28;20400;-76
2022/07/24 14:13:18;;;;;;;;;;;;;;;;;;5112935;28;19924;-77
2022/07/24 14:15:44;;;;;;;;;;;;;;;;;;5115960;28;20003;-76
2022/07/24 14:18:11;;;;;;;;;;;;;;;;;;5115727;28;20389;-76
2022/07/24 14:20:37;;;;;;;;;;;;;;;;;;5115784;28;19939;-76
2022/07/24 14:23:04;;;;;;;;;;;;;;;;;;5107640;28;19924;-76
2022/07/24 14:25:31;;;;;;;;;;;;;;;;;;5093686;28;20271;-76
2022/07/24 14:27:59;;;;;;;;;;;;;;;;;;5093416;28;19924;-76
2022/07/24 14:30:25;;;;;;;;;;;;;;;;;;5093236;28;20383;-76
2022/07/24 14:32:51;;;;;;;;;;;;;;;;;;5093943;28;19924;-76
2022/07/24 14:35:18;;;;;;;;;;;;;;;;;;5095139;28;19930;-77
2022/07/24 14:37:45;;;;;;;;;;;;;;;;;;5093652;28;20390;-76
2022/07/24 14:40:11;;;;;;;;;;;;;;;;;;5096291;28;19924;-75
2022/07/24 14:42:38;;;;;;;;;;;;;;;;;;5094311;28;19967;-77
2022/07/24 14:45:06;;;;;;;;;;;;;;;;;;5093812;28;20003;-77
2022/07/24 14:47:33;;;;;;;;;;;;;;;;;;5094630;28;19924;-78
2022/07/24 14:49:59;;;;;;;;;;;;;;;;;;5113420;28;20313;-77
2022/07/24 14:52:26;;;;;;;;;;;;;;;;;;5113953;28;20317;-76
2022/07/24 14:54:53;;;;;;;;;;;;;;;;;;5114108;28;19928;-76
2022/07/24 14:57:19;;;;;;;;;;;;;;;;;;5115137;28;19931;-76
2022/07/24 14:59:46;;;;;;;;;;;;;;;;;;5114330;28;19932;-76
2022/07/24 15:02:14;;;;;;;;;;;;;;;;;;5113849;28;19930;-77
2022/07/24 15:04:41;;;;;;;;;;;;;;;;;;5115030;28;20401;-78
2022/07/24 15:07:08;;;;;;;;;;;;;;;;;;5113707;28;19932;-77
2022/07/24 15:09:34;;;;;;;;;;;;;;;;;;5112757;28;20285;-78
2022/07/24 15:12:01;;;;;;;;;;;;;;;;;;5115941;28;19928;-77
2022/07/24 15:14:27;;;;;;;;;;;;;;;;;;5114401;28;19950;-77
2022/07/24 15:16:53;;;;;;;;;;;;;;;;;;5114173;28;19924;-76
2022/07/24 15:19:21;;;;;;;;;;;;;;;;;;5113567;28;19970;-76
2022/07/24 15:21:48;;;;;;;;;;;;;;;;;;5128883;22;19931;-76
2022/07/24 15:24:14;;;;;;;;;;;;;;;;;;5109201;28;19987;-77
2022/07/24 15:26:40;;;;;;;;;;;;;;;;;;5101875;28;19930;-78
2022/07/24 15:29:07;;;;;;;;;;;;;;;;;;5101554;28;19934;-78
2022/07/24 15:31:34;;;;;;;;;;;;;;;;;;5098675;28;19934;-78
2022/07/24 15:34:01;;;;;;;;;;;;;;;;;;5104538;28;19924;-77
2022/07/24 15:36:29;;;;;;;;;;;;;;;;;;5095256;28;20629;-78
2022/07/24 15:38:56;;;;;;;;;;;;;;;;;;5097279;28;19925;-77
2022/07/24 15:41:22;;;;;;;;;;;;;;;;;;5098156;28;19924;-78
2022/07/24 15:43:49;;;;;;;;;;;;;;;;;;5102786;28;19971;-80
2022/07/24 15:46:15;;;;;;;;;;;;;;;;;;5103458;28;19912;-78
2022/07/24 15:48:42;;;;;;;;;;;;;;;;;;5098790;28;19930;-77
2022/07/24 15:51:08;;;;;;;;;;;;;;;;;;5100358;28;19964;-78
2022/07/24 15:53:36;;;;;;;;;;;;;;;;;;5101597;28;20527;-79
2022/07/24 15:56:03;;;;;;;;;;;;;;;;;;5098679;28;20215;-79
2022/07/24 15:58:29;;;;;;;;;;;;;;;;;;5096557;28;19930;-77
2022/07/24 16:00:56;;;;;;;;;;;;;;;;;;5097240;28;19931;-79
2022/07/24 16:03:22;;;;;;;;;;;;;;;;;;5097755;28;20023;-79
2022/07/24 16:05:49;;;;;;;;;;;;;;;;;;5096268;28;19938;-78
2022/07/24 16:08:15;;;;;;;;;;;;;;;;;;5097093;28;19924;-80
2022/07/24 16:10:43;;;;;;;;;;;;;;;;;;5094215;28;20126;-77
2022/07/24 16:13:09;;;;;;;;;;;;;;;;;;5095647;28;19935;-79
2022/07/24 16:15:37;;;;;;;;;;;;;;;;;;5096880;28;19973;-77
2022/07/24 16:18:03;;;;;;;;;;;;;;;;;;5098177;28;20030;-80
2022/07/24 16:20:30;;;;;;;;;;;;;;;;;;5096848;28;19924;-77
2022/07/24 16:22:56;;;;;;;;;;;;;;;;;;5096618;28;19924;-81
2022/07/24 16:25:23;;;;;;;;;;;;;;;;;;5097587;28;19946;-79
2022/07/24 16:27:51;;;;;;;;;;;;;;;;;;5095234;28;19924;-78
2022/07/24 16:30:17;;;;;;;;;;;;;;;;;;5093515;28;19963;-78
2022/07/24 16:32:44;;;;;;;;;;;;;;;;;;5096142;28;19931;-79
2022/07/24 16:35:10;;;;;;;;;;;;;;;;;;5096133;28;19924;-80
2022/07/24 16:37:37;;;;;;;;;;;;;;;;;;5095381;28;19928;-77
2022/07/24 16:40:05;;;;;;;;;;;;;;;;;;5093916;28;20287;-77
2022/07/24 16:42:32;;;;;;;;;;;;;;;;;;5092133;28;19971;-80
2022/07/24 16:44:59;;;;;;;;;;;;;;;;;;5075173;28;20015;-80
2022/07/24 16:47:26;;;;;;;;;;;;;;;;;;5075026;28;19932;-80
2022/07/24 16:49:53;;;;;;;;;;;;;;;;;;5074823;28;20310;-78
2022/07/24 16:52:19;;;;;;;;;;;;;;;;;;5074391;28;19924;-78
2022/07/24 16:54:46;;;;;;;;;;;;;;;;;;5074412;28;19925;-79